Time,TemperatureF,DewpointF,PressureIn,WindDirection,WindDirectionDegrees,WindSpeedMPH,WindSpeedGustMPH,Humidity,HourlyPrecipIn,Conditions,Clouds,dailyrainin,SolarRadiationWatts/m^2,SoftwareType,DateUTC
2013-02-22 00:01:00,45.9,28.3,30.16,NNW,347,0.0,0.0,50,0.00,RA,,0.00,0.0,WeatherDisplay:10.37,2013-02-22 08:01:00,
2013-02-22 00:06:00,45.7,28.1,30.17,NNW,347,0.0,0.0,50,0.00,RA,,0.00,0.0,WeatherDisplay:10.37,2013-02-22 08:06:00,
2013-02-22 00:11:00,45.6,28.5,30.17,NNW,347,0.0,0.0,51,0.00,CLR,,0.00,0.0,WeatherDisplay:10.37,2013-02-22 08:11:00,
2013-02-22 00:16:00,45.5,29.3,30.17,NNW,346,0.0,0.0,53,0.00,CLR,,0.00,0.0,WeatherDisplay:10.37,2013-02-22 08:16:00,
2013-02-22 00:21:00,45.4,29.3,30.17,NNW,346,0.0,0.0,53,0.00,CLR,,0.00,0.0,WeatherDisplay:10.37,2013-02-22 08:21:00,
2013-02-22 00:26:00,45.4,29.3,30.17,NNW,347,0.0,0.0,53,0.00,CLR,,0.00,0.0,WeatherDisplay:10.37,2013-02-22 08:26:00,
2013-02-22 00:31:00,45.3,29.2,30.17,NNW,347,0.0,0.0,53,0.00,CLR,,0.00,0.0,WeatherDisplay:10.37,2013-02-22 08:31:00,
2013-02-22 00:36:00,45.4,29.3,30.17,NNW,346,0.0,0.0,53,0.00,CLR,,0.00,0.0,WeatherDisplay:10.37,2013-02-22 08:36:00,
2013-02-22 00:41:00,45.7,29.5,30.18,NNW,347,0.0,0.0,53,0.00,CLR,,0.00,0.0,WeatherDisplay:10.37,2013-02-22 08:41:00,
2013-02-22 00:46:00,46.0,29.3,30.17,NNW,347,0.0,0.0,52,0.00,CLR,,0.00,0.0,WeatherDisplay:10.37,2013-02-22 08:46:00,
2013-02-22 00:51:00,46.2,29.1,30.17,SW,225,1.4,3.5,51,0.00,CLR,,0.00,0.0,WeatherDisplay:10.37,2013-02-22 08:51:00,
2013-02-22 00:56:00,46.3,29.1,30.17,SW,223,4.8,5.0,51,0.00,CLR,,0.00,0.0,WeatherDisplay:10.37,2013-02-22 08:56:00,
2013-02-22 01:01:00,46.6,29.4,30.17,SW,227,3.9,4.6,51,0.00,CLR,,0.00,0.0,WeatherDisplay:10.37,2013-02-22 09:01:00,
2013-02-22 01:06:00,47.0,29.3,30.17,WSW,240,2.4,4.6,50,0.00,CLR,,0.00,0.0,WeatherDisplay:10.37,2013-02-22 09:06:00,
2013-02-22 01:11:00,47.2,29.5,30.17,WSW,240,0.0,1.1,50,0.00,CLR,,0.00,0.0,WeatherDisplay:10.37,2013-02-22 09:11:00,
2013-02-22 01:16:00,47.1,28.9,30.17,WSW,241,0.2,1.1,49,0.00,CLR,,0.00,0.0,WeatherDisplay:10.37,2013-02-22 09:16:00,
2013-02-22 01:21:00,46.9,29.2,30.17,WSW,258,0.2,2.3,50,0.00,CLR,,0.00,0.0,WeatherDisplay:10.37,2013-02-22 09:21:00,
2013-02-22 01:26:00,46.7,30.0,30.18,North,6,0.3,2.3,52,0.00,CLR,,0.00,0.0,WeatherDisplay:10.37,2013-02-22 09:26:00,
2013-02-22 01:31:00,46.5,30.3,30.18,North,6,1.8,2.3,53,0.00,CLR,,0.00,0.0,WeatherDisplay:10.37,2013-02-22 09:31:00,
2013-02-22 01:36:00,46.3,30.1,30.17,North,6,1.6,2.3,53,0.00,CLR,,0.00,0.0,WeatherDisplay:10.37,2013-02-22 09:36:00,
2013-02-22 01:41:00,46.1,29.9,30.17,North,6,0.1,1.1,53,0.00,CLR,,0.00,0.0,WeatherDisplay:10.37,2013-02-22 09:41:00,
2013-02-22 01:46:00,46.1,29.9,30.17,North,6,0.0,1.1,53,0.00,CLR,,0.00,0.0,WeatherDisplay:10.37,2013-02-22 09:46:00,
2013-02-22 01:51:00,46.2,30.0,30.17,North,6,0.0,0.0,53,0.00,CLR,,0.00,0.0,WeatherDisplay:10.37,2013-02-22 09:51:00,
2013-02-22 01:56:00,46.3,30.1,30.17,North,6,0.0,0.0,53,0.00,CLR,,0.00,0.0,WeatherDisplay:10.37,2013-02-22 09:56:00,
2013-02-22 02:01:00,46.3,30.1,30.17,North,6,0.0,0.0,53,0.00,CLR,,0.00,0.0,WeatherDisplay:10.37,2013-02-22 10:01:00,
2013-02-22 02:06:00,46.1,30.4,30.17,North,358,1.8,2.3,54,0.00,CLR,,0.00,0.0,WeatherDisplay:10.37,2013-02-22 10:06:00,
2013-02-22 02:11:00,46.0,30.7,30.17,North,355,2.0,3.5,55,0.00,CLR,,0.00,0.0,WeatherDisplay:10.37,2013-02-22 10:11:00,
2013-02-22 02:16:00,45.6,30.8,30.17,North,350,2.2,3.5,56,0.00,CLR,,0.00,0.0,WeatherDisplay:10.37,2013-02-22 10:16:00,
2013-02-22 02:21:00,45.3,30.1,30.17,North,349,1.3,2.3,55,0.00,CLR,,0.00,0.0,WeatherDisplay:10.37,2013-02-22 10:21:00,
2013-02-22 02:26:00,45.2,30.9,30.17,WNW,293,1.6,3.5,57,0.00,CLR,,0.00,0.0,WeatherDisplay:10.37,2013-02-22 10:26:00,
2013-02-22 02:31:00,45.2,30.9,30.17,WNW,293,0.1,0.0,57,0.00,CLR,,0.00,0.0,WeatherDisplay:10.37,2013-02-22 10:31:00,
2013-02-22 02:36:00,45.2,30.9,30.17,WNW,293,0.0,0.0,57,0.00,CLR,,0.00,0.0,WeatherDisplay:10.37,2013-02-22 10:36:00,
2013-02-22 02:41:00,45.1,30.8,30.17,WNW,293,0.1,1.1,57,0.00,CLR,,0.00,0.0,WeatherDisplay:10.37,2013-02-22 10:41:00,
2013-02-22 02:46:00,44.9,30.1,30.17,WNW,293,0.0,0.0,56,0.00,CLR,,0.00,0.0,WeatherDisplay:10.37,2013-02-22 10:46:00,
2013-02-22 02:51:00,44.6,29.9,30.17,WNW,293,0.4,1.1,56,0.00,CLR,,0.00,0.0,WeatherDisplay:10.37,2013-02-22 10:51:00,
2013-02-22 02:56:00,44.3,30.0,30.17,WNW,292,0.0,0.0,57,0.00,CLR,,0.00,0.0,WeatherDisplay:10.37,2013-02-22 10:56:00,
2013-02-22 03:01:00,44.0,30.2,30.17,WSW,256,3.1,4.6,58,0.00,CLR,,0.00,0.0,WeatherDisplay:10.37,2013-02-22 11:01:00,
2013-02-22 03:06:00,44.1,32.3,30.17,WSW,243,5.4,6.0,63,0.00,CLR,,0.00,0.0,WeatherDisplay:10.37,2013-02-22 11:06:00,
2013-02-22 03:11:00,44.5,32.7,30.16,WSW,237,4.2,4.6,63,0.00,CLR,,0.00,0.0,WeatherDisplay:10.37,2013-02-22 11:11:00,
2013-02-22 03:16:00,45.0,33.2,30.16,WSW,251,5.2,5.8,63,0.00,CLR,,0.00,0.0,WeatherDisplay:10.37,2013-02-22 11:16:00,
2013-02-22 03:21:00,45.5,33.6,30.16,West,265,4.5,5.0,63,0.00,CLR,,0.00,0.0,WeatherDisplay:10.37,2013-02-22 11:21:00,
2013-02-22 03:26:00,45.9,33.6,30.16,West,274,3.7,3.7,62,0.00,CLR,,0.00,0.0,WeatherDisplay:10.37,2013-02-22 11:26:00,
2013-02-22 03:31:00,46.1,33.4,30.17,West,274,0.3,3.5,61,0.00,CLR,,0.00,0.0,WeatherDisplay:10.37,2013-02-22 11:31:00,
2013-02-22 03:36:00,46.1,33.4,30.17,WNW,297,1.6,3.5,61,0.00,CLR,,0.00,0.0,WeatherDisplay:10.37,2013-02-22 11:36:00,
2013-02-22 03:41:00,46.0,33.3,30.17,WNW,296,1.4,2.3,61,0.00,CLR,,0.00,0.0,WeatherDisplay:10.37,2013-02-22 11:41:00,
2013-02-22 03:46:00,45.8,33.5,30.17,WNW,296,2.4,3.5,62,0.00,CLR,,0.00,0.0,WeatherDisplay:10.37,2013-02-22 11:46:00,
2013-02-22 03:51:00,45.6,33.3,30.17,North,354,2.6,4.0,62,0.00,CLR,,0.00,0.0,WeatherDisplay:10.37,2013-02-22 11:51:00,
2013-02-22 03:56:00,45.3,32.2,30.17,North,351,0.9,1.1,60,0.00,CLR,,0.00,0.0,WeatherDisplay:10.37,2013-02-22 11:56:00,
2013-02-22 04:01:00,44.9,32.3,30.17,WNW,282,2.6,3.5,61,0.00,CLR,,0.00,0.0,WeatherDisplay:10.37,2013-02-22 12:01:00,
2013-02-22 04:06:00,44.7,32.5,30.17,WNW,282,1.4,2.3,62,0.00,CLR,,0.00,0.0,WeatherDisplay:10.37,2013-02-22 12:06:00,
2013-02-22 04:11:00,44.5,32.3,30.17,WNW,282,0.0,0.0,62,0.00,CLR,,0.00,0.0,WeatherDisplay:10.37,2013-02-22 12:11:00,
2013-02-22 04:16:00,44.3,31.7,30.17,WNW,282,0.0,0.0,61,0.00,CLR,,0.00,0.0,WeatherDisplay:10.37,2013-02-22 12:16:00,
2013-02-22 04:21:00,44.0,31.4,30.17,WNW,282,0.7,1.1,61,0.00,CLR,,0.00,0.0,WeatherDisplay:10.37,2013-02-22 12:21:00,
2013-02-22 04:26:00,43.8,30.8,30.18,WNW,283,0.9,2.0,60,0.00,CLR,,0.00,0.0,WeatherDisplay:10.37,2013-02-22 12:26:00,
2013-02-22 04:31:00,43.6,31.0,30.18,WNW,283,2.0,3.5,61,0.00,CLR,,0.00,0.0,WeatherDisplay:10.37,2013-02-22 12:31:00,
2013-02-22 04:36:00,43.3,31.1,30.18,WNW,282,1.6,2.3,62,0.00,CLR,,0.00,0.0,WeatherDisplay:10.37,2013-02-22 12:36:00,
2013-02-22 04:41:00,43.0,31.3,30.18,WNW,282,2.4,3.5,63,0.00,CLR,,0.00,0.0,WeatherDisplay:10.37,2013-02-22 12:41:00,
2013-02-22 04:46:00,42.8,31.5,30.18,WNW,282,2.7,3.5,64,0.00,CLR,,0.00,0.0,WeatherDisplay:10.37,2013-02-22 12:46:00,
2013-02-22 04:51:00,42.7,32.1,30.18,West,278,3.5,4.0,66,0.00,CLR,,0.00,0.0,WeatherDisplay:10.37,2013-02-22 12:51:00,
2013-02-22 04:56:00,43.1,33.3,30.19,West,270,5.0,6.9,68,0.00,CLR,,0.00,0.0,WeatherDisplay:10.37,2013-02-22 12:56:00,
2013-02-22 05:01:00,43.7,33.5,30.19,West,266,3.9,5.0,67,0.00,CLR,,0.00,0.0,WeatherDisplay:10.37,2013-02-22 13:01:00,
2013-02-22 05:06:00,44.2,33.6,30.19,WSW,245,4.1,5.0,66,0.00,CLR,,0.00,0.0,WeatherDisplay:10.37,2013-02-22 13:06:00,
2013-02-22 05:11:00,44.5,34.2,30.19,SW,235,3.4,4.6,67,0.00,CLR,,0.00,0.0,WeatherDisplay:10.37,2013-02-22 13:11:00,
2013-02-22 05:16:00,44.7,34.4,30.19,SW,235,2.7,3.5,67,0.00,CLR,,0.00,0.0,WeatherDisplay:10.37,2013-02-22 13:16:00,
2013-02-22 05:21:00,44.6,34.3,30.18,SW,222,2.0,3.5,67,0.00,CLR,,0.00,0.0,WeatherDisplay:10.37,2013-02-22 13:21:00,
2013-02-22 05:26:00,44.6,34.3,30.18,SW,222,1.7,3.5,67,0.00,CLR,,0.00,0.0,WeatherDisplay:10.37,2013-02-22 13:26:00,
2013-02-22 05:31:00,44.6,34.7,30.18,SW,221,1.0,2.3,68,0.00,CLR,,0.00,0.0,WeatherDisplay:10.37,2013-02-22 13:31:00,
2013-02-22 05:36:00,44.7,34.8,30.18,SW,223,0.2,2.3,68,0.00,CLR,,0.00,0.0,WeatherDisplay:10.37,2013-02-22 13:36:00,
2013-02-22 05:41:00,44.9,35.0,30.19,SW,222,0.0,0.0,68,0.00,CLR,,0.00,0.0,WeatherDisplay:10.37,2013-02-22 13:41:00,
2013-02-22 05:46:00,44.9,35.0,30.20,WNW,290,1.2,2.3,68,0.00,CLR,,0.00,0.0,WeatherDisplay:10.37,2013-02-22 13:46:00,
2013-02-22 05:51:00,44.8,34.5,30.20,North,354,2.1,3.5,67,0.00,CLR,,0.00,0.0,WeatherDisplay:10.37,2013-02-22 13:51:00,
2013-02-22 05:56:00,44.6,34.3,30.20,North,354,0.0,0.0,67,0.00,CLR,,0.00,0.0,WeatherDisplay:10.37,2013-02-22 13:56:00,
2013-02-22 06:01:00,44.4,34.5,30.20,North,354,0.3,1.1,68,0.00,CLR,,0.00,0.0,WeatherDisplay:10.37,2013-02-22 14:01:00,
2013-02-22 06:06:00,44.2,33.9,30.20,North,355,0.0,0.0,67,0.00,CLR,,0.00,0.0,WeatherDisplay:10.37,2013-02-22 14:06:00,
2013-02-22 06:11:00,44.0,34.1,30.20,North,353,0.4,1.1,68,0.00,CLR,,0.00,0.0,WeatherDisplay:10.37,2013-02-22 14:11:00,
2013-02-22 06:16:00,43.9,34.0,30.20,North,354,0.8,2.3,68,0.00,CLR,,0.00,0.0,WeatherDisplay:10.37,2013-02-22 14:16:00,
2013-02-22 06:21:00,43.7,33.5,30.20,North,354,0.0,0.0,67,0.00,CLR,,0.00,0.0,WeatherDisplay:10.37,2013-02-22 14:21:00,
2013-02-22 06:26:00,43.5,33.6,30.21,North,354,1.9,3.0,68,0.00,CLR,,0.00,0.0,WeatherDisplay:10.37,2013-02-22 14:26:00,
2013-02-22 06:31:00,43.2,33.3,30.21,North,354,0.2,2.3,68,0.00,CLR,,0.00,0.0,WeatherDisplay:10.37,2013-02-22 14:31:00,
2013-02-22 06:36:00,43.1,33.6,30.21,North,354,0.0,1.1,69,0.00,CLR,,0.00,0.0,WeatherDisplay:10.37,2013-02-22 14:36:00,
2013-02-22 06:41:00,42.9,33.8,30.21,North,354,1.1,2.3,70,0.00,CLR,,0.00,0.0,WeatherDisplay:10.37,2013-02-22 14:41:00,
2013-02-22 06:46:00,42.8,33.7,30.21,North,354,1.5,2.3,70,0.00,CLR,,0.00,0.0,WeatherDisplay:10.37,2013-02-22 14:46:00,
2013-02-22 06:51:00,42.6,33.5,30.21,North,351,2.2,3.5,70,0.00,CLR,,0.00,5.0,WeatherDisplay:10.37,2013-02-22 14:51:00,
2013-02-22 06:56:00,42.6,33.5,30.21,West,267,3.3,4.0,70,0.00,CLR,,0.00,9.0,WeatherDisplay:10.37,2013-02-22 14:56:00,
2013-02-22 07:01:00,42.8,34.0,30.21,West,259,4.9,6.0,71,0.00,CLR,,0.00,12.0,WeatherDisplay:10.37,2013-02-22 15:01:00,
2013-02-22 07:06:00,43.3,34.9,30.22,WSW,249,4.0,5.0,72,0.00,CLR,,0.00,14.0,WeatherDisplay:10.37,2013-02-22 15:06:00,
2013-02-22 07:11:00,43.7,34.9,30.21,SW,218,4.2,5.0,71,0.00,CLR,,0.00,18.0,WeatherDisplay:10.37,2013-02-22 15:11:00,
2013-02-22 07:16:00,44.0,35.2,30.22,SW,224,3.4,4.0,71,0.00,CLR,,0.00,19.0,WeatherDisplay:10.37,2013-02-22 15:16:00,
2013-02-22 07:21:00,44.0,35.2,30.22,SW,225,2.0,3.5,71,0.00,CLR,,0.00,25.0,WeatherDisplay:10.37,2013-02-22 15:21:00,
2013-02-22 07:26:00,44.2,35.4,30.22,SW,220,3.4,3.5,71,0.00,CLR,,0.00,37.0,WeatherDisplay:10.37,2013-02-22 15:26:00,
2013-02-22 07:31:00,44.6,35.8,30.22,SW,219,3.1,3.5,71,0.00,CLR,,0.00,53.0,WeatherDisplay:10.37,2013-02-22 15:31:00,
2013-02-22 07:36:00,45.2,36.0,30.23,SW,219,2.0,3.5,70,0.00,CLR,,0.00,72.0,WeatherDisplay:10.37,2013-02-22 15:36:00,
2013-02-22 07:41:00,45.8,36.2,30.23,SW,219,0.0,1.1,69,0.00,CLR,,0.00,98.0,WeatherDisplay:10.37,2013-02-22 15:41:00,
2013-02-22 07:46:00,46.5,36.5,30.23,West,278,2.3,3.5,68,0.00,CLR,,0.00,130.0,WeatherDisplay:10.37,2013-02-22 15:46:00,
2013-02-22 07:51:00,47.1,36.7,30.24,West,278,0.2,1.1,67,0.00,CLR,,0.00,156.0,WeatherDisplay:10.37,2013-02-22 15:51:00,
2013-02-22 07:56:00,47.9,37.1,30.23,West,279,0.0,0.0,66,0.00,CLR,,0.00,176.0,WeatherDisplay:10.37,2013-02-22 15:56:00,
2013-02-22 08:01:00,48.9,37.3,30.23,West,279,0.0,0.0,64,0.00,CLR,,0.00,195.0,WeatherDisplay:10.37,2013-02-22 16:01:00,
2013-02-22 08:06:00,50.1,37.2,30.23,West,278,0.0,0.0,61,0.00,CLR,,0.00,213.0,WeatherDisplay:10.37,2013-02-22 16:06:00,
2013-02-22 08:11:00,51.0,37.2,30.24,West,278,0.0,0.0,59,0.00,CLR,,0.00,223.0,WeatherDisplay:10.37,2013-02-22 16:11:00,
2013-02-22 08:16:00,52.1,37.8,30.24,West,278,0.0,0.0,58,0.00,CLR,,0.00,244.0,WeatherDisplay:10.37,2013-02-22 16:16:00,
2013-02-22 08:21:00,52.9,37.6,30.24,West,274,0.0,2.3,56,0.00,CLR,,0.00,255.0,WeatherDisplay:10.37,2013-02-22 16:21:00,
2013-02-22 08:26:00,53.3,38.0,30.24,West,274,0.0,0.0,56,0.00,CLR,,0.00,257.0,WeatherDisplay:10.37,2013-02-22 16:26:00,
2013-02-22 08:31:00,53.9,37.6,30.24,West,274,0.0,0.0,54,0.00,CLR,,0.00,279.0,WeatherDisplay:10.37,2013-02-22 16:31:00,
2013-02-22 08:36:00,53.7,37.4,30.24,West,274,0.0,0.0,54,0.00,CLR,,0.00,301.0,WeatherDisplay:10.37,2013-02-22 16:36:00,
2013-02-22 08:41:00,53.6,37.8,30.24,West,274,0.7,2.3,55,0.00,CLR,,0.00,308.0,WeatherDisplay:10.37,2013-02-22 16:41:00,
2013-02-22 08:46:00,54.2,39.3,30.24,West,279,0.7,2.3,57,0.00,CLR,,0.00,329.0,WeatherDisplay:10.37,2013-02-22 16:46:00,
2013-02-22 08:51:00,55.0,39.6,30.24,WNW,282,1.7,2.3,56,0.00,CLR,,0.00,339.0,WeatherDisplay:10.37,2013-02-22 16:51:00,
2013-02-22 08:56:00,55.7,40.7,30.24,WNW,285,1.4,3.5,57,0.00,CLR,,0.00,366.0,WeatherDisplay:10.37,2013-02-22 16:56:00,
2013-02-22 09:01:00,56.1,40.1,30.24,WNW,285,0.0,0.0,55,0.00,CLR,,0.00,381.0,WeatherDisplay:10.37,2013-02-22 17:01:00,
2013-02-22 09:06:00,56.0,39.6,30.24,WNW,286,0.6,2.3,54,0.00,CLR,,0.00,401.0,WeatherDisplay:10.37,2013-02-22 17:06:00,
2013-02-22 09:11:00,55.9,40.0,30.24,WNW,290,1.9,3.5,55,0.00,CLR,,0.00,415.0,WeatherDisplay:10.37,2013-02-22 17:11:00,
2013-02-22 09:16:00,56.1,40.6,30.23,WNW,291,1.4,3.5,56,0.00,CLR,,0.00,427.0,WeatherDisplay:10.37,2013-02-22 17:16:00,
2013-02-22 09:21:00,56.4,40.4,30.23,WNW,291,0.1,1.0,55,0.00,CLR,,0.00,436.0,WeatherDisplay:10.37,2013-02-22 17:21:00,
2013-02-22 09:26:00,56.5,40.0,30.23,WNW,291,1.4,3.5,54,0.00,CLR,,0.00,466.0,WeatherDisplay:10.37,2013-02-22 17:26:00,
2013-02-22 09:31:00,57.1,39.6,30.23,WNW,291,0.0,0.0,52,0.00,CLR,,0.00,480.0,WeatherDisplay:10.37,2013-02-22 17:31:00,
2013-02-22 09:36:00,57.7,41.2,30.24,NNW,341,1.6,3.5,54,0.00,CLR,,0.00,499.0,WeatherDisplay:10.37,2013-02-22 17:36:00,
2013-02-22 09:41:00,58.2,40.6,30.24,NNW,337,1.5,2.3,52,0.00,CLR,,0.00,508.0,WeatherDisplay:10.37,2013-02-22 17:41:00,
2013-02-22 09:46:00,58.6,41.0,30.24,NNW,332,2.5,4.6,52,0.00,CLR,,0.00,487.0,WeatherDisplay:10.37,2013-02-22 17:46:00,
2013-02-22 09:51:00,58.8,41.7,30.24,NNW,331,0.3,2.3,53,0.00,CLR,,0.00,513.0,WeatherDisplay:10.37,2013-02-22 17:51:00,
2013-02-22 09:56:00,59.1,41.5,30.24,NW,321,1.7,3.5,52,0.00,CLR,,0.00,531.0,WeatherDisplay:10.37,2013-02-22 17:56:00,
2013-02-22 10:01:00,59.6,39.9,30.24,NW,313,2.6,3.5,48,0.00,CLR,,0.00,543.0,WeatherDisplay:10.37,2013-02-22 18:01:00,
2013-02-22 10:06:00,59.8,40.1,30.24,NW,318,4.2,5.8,48,0.00,CLR,,0.00,561.0,WeatherDisplay:10.37,2013-02-22 18:06:00,
2013-02-22 10:11:00,60.0,38.0,30.24,NW,314,1.6,4.0,44,0.00,CLR,,0.00,585.0,WeatherDisplay:10.37,2013-02-22 18:11:00,
2013-02-22 10:16:00,60.0,38.6,30.24,NW,326,3.3,3.5,45,0.00,CLR,,0.00,589.0,WeatherDisplay:10.37,2013-02-22 18:16:00,
2013-02-22 10:21:00,60.4,38.4,30.24,NNW,334,0.8,3.5,44,0.00,CLR,,0.00,594.0,WeatherDisplay:10.37,2013-02-22 18:21:00,
2013-02-22 10:26:00,60.9,37.6,30.24,WNW,294,6.0,8.1,42,0.00,CLR,,0.00,612.0,WeatherDisplay:10.37,2013-02-22 18:26:00,
2013-02-22 10:31:00,60.7,36.2,30.24,NNW,345,2.6,5.8,40,0.00,CLR,,0.00,619.0,WeatherDisplay:10.37,2013-02-22 18:31:00,
2013-02-22 10:36:00,61.0,35.8,30.25,WNW,299,3.5,6.9,39,0.00,CLR,,0.00,615.0,WeatherDisplay:10.37,2013-02-22 18:36:00,
2013-02-22 10:41:00,61.3,36.1,30.25,NNW,332,2.7,3.5,39,0.00,CLR,,0.00,619.0,WeatherDisplay:10.37,2013-02-22 18:41:00,
2013-02-22 10:46:00,61.6,36.4,30.25,NW,324,4.6,6.9,39,0.00,CLR,,0.00,650.0,WeatherDisplay:10.37,2013-02-22 18:46:00,
2013-02-22 10:51:00,61.8,36.6,30.25,NNW,347,2.4,4.0,39,0.00,CLR,,0.00,659.0,WeatherDisplay:10.37,2013-02-22 18:51:00,
2013-02-22 10:56:00,62.1,36.8,30.25,NW,326,2.4,3.5,39,0.00,CLR,,0.00,650.0,WeatherDisplay:10.37,2013-02-22 18:56:00,
2013-02-22 11:01:00,62.5,37.2,30.25,NNW,329,1.5,3.5,39,0.00,CLR,,0.00,647.0,WeatherDisplay:10.37,2013-02-22 19:01:00,
2013-02-22 11:06:00,62.8,37.5,30.25,NNW,327,2.9,6.0,39,0.00,CLR,,0.00,654.0,WeatherDisplay:10.37,2013-02-22 19:06:00,
2013-02-22 11:11:00,62.9,36.9,30.25,NW,324,4.8,8.1,38,0.00,CLR,,0.00,666.0,WeatherDisplay:10.37,2013-02-22 19:11:00,
2013-02-22 11:16:00,62.9,36.9,30.25,NNW,330,5.1,8.1,38,0.00,CLR,,0.00,670.0,WeatherDisplay:10.37,2013-02-22 19:16:00,
2013-02-22 11:21:00,63.1,35.7,30.25,North,356,2.4,3.5,36,0.00,CLR,,0.00,679.0,WeatherDisplay:10.37,2013-02-22 19:21:00,
2013-02-22 11:26:00,63.3,37.2,30.25,NW,324,1.8,3.5,38,0.00,CLR,,0.00,686.0,WeatherDisplay:10.37,2013-02-22 19:26:00,
2013-02-22 11:31:00,63.4,36.7,30.25,NW,322,2.9,5.0,37,0.00,CLR,,0.00,705.0,WeatherDisplay:10.37,2013-02-22 19:31:00,
2013-02-22 11:36:00,63.6,37.5,30.25,WNW,298,5.8,9.2,38,0.00,CLR,,0.00,701.0,WeatherDisplay:10.37,2013-02-22 19:36:00,
2013-02-22 11:41:00,63.9,37.1,30.24,NW,326,2.8,4.6,37,0.00,CLR,,0.00,714.0,WeatherDisplay:10.37,2013-02-22 19:41:00,
2013-02-22 11:46:00,64.0,36.5,30.24,NNW,332,1.8,3.5,36,0.00,CLR,,0.00,717.0,WeatherDisplay:10.37,2013-02-22 19:46:00,
2013-02-22 11:51:00,64.0,37.2,30.24,North,3,1.6,3.5,37,0.00,CLR,,0.00,719.0,WeatherDisplay:10.37,2013-02-22 19:51:00,
2013-02-22 11:56:00,64.1,36.6,30.24,WNW,289,2.1,4.0,36,0.00,CLR,,0.00,722.0,WeatherDisplay:10.37,2013-02-22 19:56:00,
2013-02-22 12:01:00,64.4,37.5,30.24,NW,318,3.4,4.6,37,0.00,CLR,,0.00,722.0,WeatherDisplay:10.37,2013-02-22 20:01:00,
2013-02-22 12:06:00,64.4,36.8,30.24,NW,309,1.6,4.6,36,0.00,CLR,,0.00,726.0,WeatherDisplay:10.37,2013-02-22 20:06:00,
2013-02-22 12:11:00,64.2,37.4,30.23,NW,325,3.4,5.8,37,0.00,CLR,,0.00,729.0,WeatherDisplay:10.37,2013-02-22 20:11:00,
2013-02-22 12:16:00,64.3,37.5,30.23,North,10,2.3,3.5,37,0.00,CLR,,0.00,754.0,WeatherDisplay:10.37,2013-02-22 20:16:00,
2013-02-22 12:21:00,64.6,37.0,30.23,NW,322,3.0,8.1,36,0.00,CLR,,0.00,821.0,WeatherDisplay:10.37,2013-02-22 20:21:00,
2013-02-22 12:26:00,64.7,37.1,30.23,NW,324,0.5,3.5,36,0.00,CLR,,0.00,856.0,WeatherDisplay:10.37,2013-02-22 20:26:00,
2013-02-22 12:31:00,64.8,36.5,30.23,NW,326,3.3,4.0,35,0.00,CLR,,0.00,733.0,WeatherDisplay:10.37,2013-02-22 20:31:00,
2013-02-22 12:36:00,65.0,37.4,30.23,NNW,330,2.7,5.8,36,0.00,CLR,,0.00,728.0,WeatherDisplay:10.37,2013-02-22 20:36:00,
2013-02-22 12:41:00,65.3,37.6,30.23,NW,320,1.7,3.5,36,0.00,CLR,,0.00,721.0,WeatherDisplay:10.37,2013-02-22 20:41:00,
2013-02-22 12:46:00,65.4,37.7,30.23,NNW,333,3.3,9.2,36,0.00,CLR,,0.00,714.0,WeatherDisplay:10.37,2013-02-22 20:46:00,
2013-02-22 12:51:00,65.5,37.8,30.23,NNE,12,2.8,3.5,36,0.00,CLR,,0.00,712.0,WeatherDisplay:10.37,2013-02-22 20:51:00,
2013-02-22 12:56:00,65.5,37.8,30.23,NW,324,0.6,3.5,36,0.00,CLR,,0.00,708.0,WeatherDisplay:10.37,2013-02-22 20:56:00,
2013-02-22 13:01:00,65.6,37.9,30.23,NNW,329,4.2,6.9,36,0.00,CLR,,0.00,707.0,WeatherDisplay:10.37,2013-02-22 21:01:00,
2013-02-22 13:06:00,65.8,38.1,30.22,NNW,335,2.7,6.9,36,0.00,CLR,,0.00,707.0,WeatherDisplay:10.37,2013-02-22 21:06:00,
2013-02-22 13:11:00,65.9,36.7,30.22,NNW,345,4.2,4.6,34,0.00,CLR,,0.00,701.0,WeatherDisplay:10.37,2013-02-22 21:11:00,
2013-02-22 13:16:00,65.9,36.7,30.22,WNW,293,4.9,6.9,34,0.00,CLR,,0.00,696.0,WeatherDisplay:10.37,2013-02-22 21:16:00,
2013-02-22 13:21:00,66.0,37.5,30.22,WNW,303,1.3,4.6,35,0.00,CLR,,0.00,687.0,WeatherDisplay:10.37,2013-02-22 21:21:00,
2013-02-22 13:26:00,66.0,37.5,30.21,WNW,289,2.3,4.6,35,0.00,CLR,,0.00,684.0,WeatherDisplay:10.37,2013-02-22 21:26:00,
2013-02-22 13:31:00,66.1,37.6,30.21,NW,320,2.8,4.6,35,0.00,CLR,,0.00,677.0,WeatherDisplay:10.37,2013-02-22 21:31:00,
2013-02-22 13:36:00,66.1,37.6,30.21,NNE,33,3.8,5.0,35,0.00,CLR,,0.00,671.0,WeatherDisplay:10.37,2013-02-22 21:36:00,
2013-02-22 13:41:00,66.2,37.7,30.20,NW,316,3.0,4.6,35,0.00,CLR,,0.00,659.0,WeatherDisplay:10.37,2013-02-22 21:41:00,
2013-02-22 13:46:00,66.2,37.7,30.20,NNW,346,2.4,4.0,35,0.00,CLR,,0.00,656.0,WeatherDisplay:10.37,2013-02-22 21:46:00,
2013-02-22 13:51:00,66.1,37.6,30.20,North,358,3.0,3.5,35,0.00,CLR,,0.00,643.0,WeatherDisplay:10.37,2013-02-22 21:51:00,
2013-02-22 13:56:00,66.0,37.5,30.20,NNW,333,1.0,2.3,35,0.00,CLR,,0.00,636.0,WeatherDisplay:10.37,2013-02-22 21:56:00,
2013-02-22 14:01:00,66.1,38.4,30.20,NE,43,5.4,7.0,36,0.00,CLR,,0.00,629.0,WeatherDisplay:10.37,2013-02-22 22:01:00,
2013-02-22 14:06:00,65.5,38.5,30.20,NNE,26,3.2,6.9,37,0.00,CLR,,0.00,621.0,WeatherDisplay:10.37,2013-02-22 22:06:00,
2013-02-22 14:11:00,65.3,38.3,30.20,NW,325,3.4,6.9,37,0.00,CLR,,0.00,615.0,WeatherDisplay:10.37,2013-02-22 22:11:00,
2013-02-22 14:16:00,65.2,38.9,30.19,NW,304,4.4,5.8,38,0.00,CLR,,0.00,601.0,WeatherDisplay:10.37,2013-02-22 22:16:00,
2013-02-22 14:21:00,65.4,39.1,30.19,WNW,288,2.3,3.5,38,0.00,CLR,,0.00,589.0,WeatherDisplay:10.37,2013-02-22 22:21:00,
2013-02-22 14:26:00,65.4,38.4,30.19,NW,317,1.0,3.5,37,0.00,CLR,,0.00,577.0,WeatherDisplay:10.37,2013-02-22 22:26:00,
2013-02-22 14:31:00,65.4,39.8,30.19,North,5,2.3,3.5,39,0.00,CLR,,0.00,568.0,WeatherDisplay:10.37,2013-02-22 22:31:00,
2013-02-22 14:36:00,65.3,39.7,30.19,NNW,328,2.2,4.6,39,0.00,CLR,,0.00,554.0,WeatherDisplay:10.37,2013-02-22 22:36:00,
2013-02-22 14:41:00,65.3,40.3,30.19,NNE,28,2.8,6.0,40,0.00,CLR,,0.00,541.0,WeatherDisplay:10.37,2013-02-22 22:41:00,
2013-02-22 14:46:00,65.2,40.3,30.19,North,359,1.3,3.5,40,0.00,CLR,,0.00,526.0,WeatherDisplay:10.37,2013-02-22 22:46:00,
2013-02-22 14:51:00,65.3,41.6,30.19,NNW,347,3.6,3.6,42,0.00,CLR,,0.00,513.0,WeatherDisplay:10.37,2013-02-22 22:51:00,
2013-02-22 14:56:00,65.2,40.9,30.19,North,5,0.9,2.3,41,0.00,CLR,,0.00,501.0,WeatherDisplay:10.37,2013-02-22 22:56:00,
2013-02-22 15:01:00,65.1,41.4,30.19,NW,307,2.5,3.5,42,0.00,CLR,,0.00,485.0,WeatherDisplay:10.37,2013-02-22 23:01:00,
2013-02-22 15:06:00,65.2,42.1,30.19,NNW,328,1.7,3.5,43,0.00,CLR,,0.00,475.0,WeatherDisplay:10.37,2013-02-22 23:06:00,
2013-02-22 15:11:00,65.3,42.2,30.20,NNW,329,2.6,5.0,43,0.00,CLR,,0.00,457.0,WeatherDisplay:10.37,2013-02-22 23:11:00,
2013-02-22 15:16:00,65.3,42.8,30.20,North,11,2.1,6.9,44,0.00,CLR,,0.00,441.0,WeatherDisplay:10.37,2013-02-22 23:16:00,
2013-02-22 15:21:00,65.3,42.8,30.20,North,351,0.8,6.9,44,0.00,CLR,,0.00,429.0,WeatherDisplay:10.37,2013-02-22 23:21:00,
2013-02-22 15:26:00,65.3,42.8,30.20,NNW,341,1.5,4.6,44,0.00,CLR,,0.00,418.0,WeatherDisplay:10.37,2013-02-22 23:26:00,
2013-02-22 15:31:00,65.3,42.8,30.20,NNW,328,1.9,3.5,44,0.00,CLR,,0.00,403.0,WeatherDisplay:10.37,2013-02-22 23:31:00,
2013-02-22 15:36:00,65.3,42.8,30.19,NNW,327,3.4,5.0,44,0.00,CLR,,0.00,387.0,WeatherDisplay:10.37,2013-02-22 23:36:00,
2013-02-22 15:41:00,65.2,42.7,30.20,NW,321,2.1,5.0,44,0.00,CLR,,0.00,378.0,WeatherDisplay:10.37,2013-02-22 23:41:00,
2013-02-22 15:46:00,65.2,42.7,30.19,NW,311,1.8,4.6,44,0.00,CLR,,0.00,364.0,WeatherDisplay:10.37,2013-02-22 23:46:00,
2013-02-22 15:51:00,65.1,42.6,30.19,NW,325,0.4,1.1,44,0.00,CLR,,0.00,350.0,WeatherDisplay:10.37,2013-02-22 23:51:00,
2013-02-22 15:56:00,65.0,41.9,30.19,NNW,327,0.1,1.1,43,0.00,CLR,,0.00,332.0,WeatherDisplay:10.37,2013-02-22 23:56:00,
2013-02-22 16:01:00,64.8,41.2,30.19,West,279,3.0,4.6,42,0.00,CLR,,0.00,320.0,WeatherDisplay:10.37,2013-02-23 00:01:00,
2013-02-22 16:06:00,64.5,40.3,30.19,West,266,7.2,10.4,41,0.00,CLR,,0.00,302.0,WeatherDisplay:10.37,2013-02-23 00:06:00,
2013-02-22 16:11:00,63.7,38.3,30.19,WSW,244,10.4,15.0,39,0.00,CLR,,0.00,285.0,WeatherDisplay:10.37,2013-02-23 00:11:00,
2013-02-22 16:16:00,62.8,38.1,30.19,WSW,255,9.7,13.0,40,0.00,CLR,,0.00,272.0,WeatherDisplay:10.37,2013-02-23 00:16:00,
2013-02-22 16:21:00,61.9,37.9,30.19,SW,230,10.9,15.0,41,0.00,CLR,,0.00,246.0,WeatherDisplay:10.37,2013-02-23 00:21:00,
2013-02-22 16:26:00,61.3,38.0,30.20,WSW,247,10.5,13.0,42,0.00,CLR,,0.00,239.0,WeatherDisplay:10.37,2013-02-23 00:26:00,
2013-02-22 16:31:00,60.4,37.2,30.20,WSW,245,9.5,13.8,42,0.00,CLR,,0.00,213.0,WeatherDisplay:10.37,2013-02-23 00:31:00,
2013-02-22 16:36:00,60.0,37.4,30.20,WSW,245,10.8,13.8,43,0.00,CLR,,0.00,197.0,WeatherDisplay:10.37,2013-02-23 00:36:00,
2013-02-22 16:41:00,59.6,36.5,30.20,WSW,239,11.7,15.0,42,0.00,CLR,,0.00,172.0,WeatherDisplay:10.37,2013-02-23 00:41:00,
2013-02-22 16:46:00,59.2,36.1,30.20,SW,236,10.1,12.7,42,0.00,CLR,,0.00,156.0,WeatherDisplay:10.37,2013-02-23 00:46:00,
2013-02-22 16:51:00,59.2,35.5,30.20,SW,220,9.9,15.0,41,0.00,CLR,,0.00,141.0,WeatherDisplay:10.37,2013-02-23 00:51:00,
2013-02-22 16:56:00,59.3,36.8,30.20,SW,221,7.4,11.5,43,0.00,CLR,,0.00,125.0,WeatherDisplay:10.37,2013-02-23 00:56:00,
2013-02-22 17:01:00,59.3,36.8,30.19,South,182,5.4,9.2,43,0.00,CLR,,0.00,105.0,WeatherDisplay:10.37,2013-02-23 01:01:00,
2013-02-22 17:06:00,59.2,36.1,30.19,SSW,213,5.9,9.2,42,0.00,CLR,,0.00,88.0,WeatherDisplay:10.37,2013-02-23 01:06:00,
2013-02-22 17:11:00,59.1,36.6,30.19,SW,235,7.5,10.0,43,0.00,CLR,,0.00,72.0,WeatherDisplay:10.37,2013-02-23 01:11:00,
2013-02-22 17:16:00,59.0,36.5,30.19,SW,231,8.0,10.0,43,0.00,CLR,,0.00,58.0,WeatherDisplay:10.37,2013-02-23 01:16:00,
2013-02-22 17:21:00,58.9,35.8,30.19,SW,236,8.8,10.4,42,0.00,CLR,,0.00,40.0,WeatherDisplay:10.37,2013-02-23 01:21:00,
2013-02-22 17:26:00,58.7,35.7,30.20,SW,235,9.0,10.4,42,0.00,CLR,,0.00,35.0,WeatherDisplay:10.37,2013-02-23 01:26:00,
2013-02-22 17:31:00,58.4,35.4,30.20,WSW,240,6.7,10.4,42,0.00,CLR,,0.00,25.0,WeatherDisplay:10.37,2013-02-23 01:31:00,
2013-02-22 17:36:00,57.8,35.4,30.20,SW,232,5.0,8.1,43,0.00,CLR,,0.00,18.0,WeatherDisplay:10.37,2013-02-23 01:36:00,
2013-02-22 17:41:00,57.1,34.8,30.20,SW,220,7.2,9.2,43,0.00,CLR,,0.00,12.0,WeatherDisplay:10.37,2013-02-23 01:41:00,
2013-02-22 17:46:00,56.4,35.3,30.19,SW,224,6.4,10.4,45,0.00,CLR,,0.00,11.0,WeatherDisplay:10.37,2013-02-23 01:46:00,
2013-02-22 17:51:00,55.6,34.6,30.19,SSW,203,6.4,10.4,45,0.00,CLR,,0.00,7.0,WeatherDisplay:10.37,2013-02-23 01:51:00,
2013-02-22 17:56:00,55.0,34.6,30.19,SW,220,7.9,10.0,46,0.00,CLR,,0.00,0.0,WeatherDisplay:10.37,2013-02-23 01:56:00,
2013-02-22 18:01:00,54.5,34.1,30.19,SSW,207,7.6,9.2,46,0.00,CLR,,0.00,0.0,WeatherDisplay:10.37,2013-02-23 02:01:00,
2013-02-22 18:06:00,54.1,34.3,30.19,SW,218,6.4,9.2,47,0.00,CLR,,0.00,0.0,WeatherDisplay:10.37,2013-02-23 02:06:00,
2013-02-22 18:11:00,53.8,34.0,30.19,SW,232,6.8,8.1,47,0.00,CLR,,0.00,0.0,WeatherDisplay:10.37,2013-02-23 02:11:00,
2013-02-22 18:16:00,53.6,34.4,30.20,WSW,238,6.9,9.2,48,0.00,CLR,,0.00,0.0,WeatherDisplay:10.37,2013-02-23 02:16:00,
2013-02-22 18:21:00,53.4,34.7,30.20,SSW,207,2.6,4.6,49,0.00,CLR,,0.00,0.0,WeatherDisplay:10.37,2013-02-23 02:21:00,
2013-02-22 18:26:00,53.2,37.4,30.20,ESE,108,2.8,3.5,55,0.00,CLR,,0.00,0.0,WeatherDisplay:10.37,2013-02-23 02:26:00,
2013-02-22 18:31:00,53.0,37.7,30.20,ESE,122,2.3,3.5,56,0.00,CLR,,0.00,0.0,WeatherDisplay:10.37,2013-02-23 02:31:00,
2013-02-22 18:36:00,52.6,38.2,30.20,SE,132,3.8,4.6,58,0.00,CLR,,0.00,0.0,WeatherDisplay:10.37,2013-02-23 02:36:00,
2013-02-22 18:41:00,52.2,37.9,30.20,SE,127,4.0,5.0,58,0.00,CLR,,0.00,0.0,WeatherDisplay:10.37,2013-02-23 02:41:00,
2013-02-22 18:46:00,51.9,38.0,30.20,SSE,166,4.8,5.8,59,0.00,CLR,,0.00,0.0,WeatherDisplay:10.37,2013-02-23 02:46:00,
2013-02-22 18:51:00,51.5,39.7,30.20,ESE,118,3.7,5.8,64,0.00,CLR,,0.00,0.0,WeatherDisplay:10.37,2013-02-23 02:51:00,
2013-02-22 18:56:00,51.3,39.5,30.20,SE,124,2.8,3.5,64,0.00,CLR,,0.00,0.0,WeatherDisplay:10.37,2013-02-23 02:56:00,
2013-02-22 19:01:00,51.0,40.4,30.20,ESE,121,4.7,6.9,67,0.00,CLR,,0.00,0.0,WeatherDisplay:10.37,2013-02-23 03:01:00,
2013-02-22 19:06:00,50.8,40.2,30.20,ESE,118,4.1,5.8,67,0.00,CLR,,0.00,0.0,WeatherDisplay:10.37,2013-02-23 03:06:00,
2013-02-22 19:11:00,50.6,40.0,30.20,ESE,105,3.7,4.6,67,0.00,CLR,,0.00,0.0,WeatherDisplay:10.37,2013-02-23 03:11:00,
2013-02-22 19:16:00,50.4,39.5,30.20,ESE,118,3.4,4.6,66,0.00,CLR,,0.00,0.0,WeatherDisplay:10.37,2013-02-23 03:16:00,
2013-02-22 19:21:00,50.3,39.4,30.20,East,97,4.8,5.8,66,0.00,CLR,,0.00,0.0,WeatherDisplay:10.37,2013-02-23 03:21:00,
2013-02-22 19:26:00,50.3,39.4,30.21,ENE,64,0.7,4.0,66,0.00,CLR,,0.00,0.0,WeatherDisplay:10.37,2013-02-23 03:26:00,
2013-02-22 19:31:00,50.1,39.6,30.21,ESE,102,0.1,3.5,67,0.00,CLR,,0.00,0.0,WeatherDisplay:10.37,2013-02-23 03:31:00,
2013-02-22 19:36:00,49.9,39.4,30.22,ESE,102,1.4,2.3,67,0.00,CLR,,0.00,0.0,WeatherDisplay:10.37,2013-02-23 03:36:00,
2013-02-22 19:41:00,49.7,39.6,30.23,WNW,291,2.5,3.5,68,0.00,CLR,,0.00,0.0,WeatherDisplay:10.37,2013-02-23 03:41:00,
2013-02-22 19:46:00,49.4,39.3,30.23,WNW,301,2.9,3.5,68,0.00,CLR,,0.00,0.0,WeatherDisplay:10.37,2013-02-23 03:46:00,
2013-02-22 19:51:00,49.0,38.9,30.23,SW,228,6.9,10.4,68,0.00,CLR,,0.00,0.0,WeatherDisplay:10.37,2013-02-23 03:51:00,
2013-02-22 19:56:00,48.8,39.4,30.22,SSW,211,9.0,11.5,70,0.00,CLR,,0.00,0.0,WeatherDisplay:10.37,2013-02-23 03:56:00,
2013-02-22 20:01:00,48.7,39.4,30.22,SSW,207,7.5,9.2,70,0.00,CLR,,0.00,0.0,WeatherDisplay:10.37,2013-02-23 04:01:00,
2013-02-22 20:06:00,48.6,38.9,30.22,South,191,6.2,10.4,69,0.00,CLR,,0.00,0.0,WeatherDisplay:10.37,2013-02-23 04:06:00,
2013-02-22 20:11:00,48.6,38.9,30.22,SSE,166,8.1,9.2,69,0.00,CLR,,0.00,0.0,WeatherDisplay:10.37,2013-02-23 04:11:00,
2013-02-22 20:16:00,48.6,39.3,30.22,SW,220,8.9,11.5,70,0.00,CLR,,0.00,0.0,WeatherDisplay:10.37,2013-02-23 04:16:00,
2013-02-22 20:21:00,48.6,39.3,30.22,SW,222,6.9,11.5,70,0.00,CLR,,0.00,0.0,WeatherDisplay:10.37,2013-02-23 04:21:00,
2013-02-22 20:26:00,48.6,39.3,30.22,SSW,197,3.7,8.1,70,0.00,CLR,,0.00,0.0,WeatherDisplay:10.37,2013-02-23 04:26:00,
2013-02-22 20:31:00,48.6,39.3,30.22,WSW,240,5.5,9.2,70,0.00,CLR,,0.00,0.0,WeatherDisplay:10.37,2013-02-23 04:31:00,
2013-02-22 20:36:00,48.7,39.7,30.22,SSW,210,5.8,11.0,71,0.00,CLR,,0.00,0.0,WeatherDisplay:10.37,2013-02-23 04:36:00,
2013-02-22 20:41:00,48.7,39.7,30.21,SW,218,7.7,10.4,71,0.00,CLR,,0.00,0.0,WeatherDisplay:10.37,2013-02-23 04:41:00,
2013-02-22 20:46:00,48.8,40.2,30.21,SSW,213,8.3,10.4,72,0.00,CLR,,0.00,0.0,WeatherDisplay:10.37,2013-02-23 04:46:00,
2013-02-22 20:51:00,48.9,40.3,30.21,SW,224,5.1,8.1,72,0.00,CLR,,0.00,0.0,WeatherDisplay:10.37,2013-02-23 04:51:00,
2013-02-22 20:56:00,49.0,40.0,30.21,SW,221,4.1,5.8,71,0.00,CLR,,0.00,0.0,WeatherDisplay:10.37,2013-02-23 04:56:00,
2013-02-22 21:00:00,49.0,40.0,30.20,SW,226,2.6,5.8,71,0.00,CLR,,0.00,0.0,WeatherDisplay:10.37,2013-02-23 05:00:00,
2013-02-22 21:05:00,49.0,40.0,30.20,NE,55,4.1,5.8,71,0.00,CLR,,0.00,0.0,WeatherDisplay:10.37,2013-02-23 05:05:00,
2013-02-22 21:10:00,48.7,40.1,30.21,East,100,0.7,3.5,72,0.00,CLR,,0.00,0.0,WeatherDisplay:10.37,2013-02-23 05:10:00,
2013-02-22 21:15:00,48.4,39.8,30.20,SSE,149,4.4,5.0,72,0.00,CLR,,0.00,0.0,WeatherDisplay:10.37,2013-02-23 05:15:00,
2013-02-22 21:20:00,48.2,39.9,30.20,ESE,119,2.3,3.5,73,0.00,CLR,,0.00,0.0,WeatherDisplay:10.37,2013-02-23 05:20:00,
2013-02-22 21:25:00,48.2,39.6,30.22,SE,125,0.0,1.0,72,0.00,CLR,,0.00,0.0,WeatherDisplay:10.37,2013-02-23 05:25:00,
2013-02-22 21:30:00,48.2,39.9,30.22,NNW,332,2.0,3.5,73,0.00,CLR,,0.00,0.0,WeatherDisplay:10.37,2013-02-23 05:30:00,
2013-02-22 21:35:00,48.2,39.9,30.23,NNE,12,1.9,4.6,73,0.00,CLR,,0.00,0.0,WeatherDisplay:10.37,2013-02-23 05:35:00,
2013-02-22 21:40:00,47.9,40.0,30.23,WNW,303,0.6,3.0,74,0.00,CLR,,0.00,0.0,WeatherDisplay:10.37,2013-02-23 05:40:00,
2013-02-22 21:45:00,47.8,40.6,30.23,WSW,251,6.0,8.1,76,0.00,CLR,,0.00,0.0,WeatherDisplay:10.37,2013-02-23 05:45:00,
2013-02-22 21:50:00,47.8,40.6,30.24,WNW,292,5.7,9.2,76,0.00,CLR,,0.00,0.0,WeatherDisplay:10.37,2013-02-23 05:50:00,
2013-02-22 21:55:00,47.8,40.9,30.24,West,262,7.6,9.2,77,0.00,CLR,,0.00,0.0,WeatherDisplay:10.37,2013-02-23 05:55:00,
2013-02-22 22:00:00,47.8,40.9,30.24,WSW,238,9.5,11.5,77,0.00,CLR,,0.00,0.0,WeatherDisplay:10.37,2013-02-23 06:00:00,
2013-02-22 22:05:00,47.7,41.2,30.24,SW,230,5.7,9.2,78,0.00,CLR,,0.00,0.0,WeatherDisplay:10.37,2013-02-23 06:05:00,
2013-02-22 22:10:00,47.7,41.2,30.24,WSW,246,8.4,10.4,78,0.00,CLR,,0.00,0.0,WeatherDisplay:10.37,2013-02-23 06:10:00,
2013-02-22 22:15:00,47.8,40.9,30.24,SW,231,6.8,9.2,77,0.00,CLR,,0.00,0.0,WeatherDisplay:10.37,2013-02-23 06:15:00,
2013-02-22 22:21:00,47.8,40.9,30.24,WSW,237,8.5,10.0,77,0.00,CLR,,0.00,0.0,WeatherDisplay:10.37,2013-02-23 06:21:00,
2013-02-22 22:26:00,47.9,40.7,30.24,WSW,241,8.1,10.4,76,0.00,CLR,,0.00,0.0,WeatherDisplay:10.37,2013-02-23 06:26:00,
2013-02-22 22:31:00,48.0,40.8,30.24,SW,236,6.5,9.2,76,0.00,CLR,,0.00,0.0,WeatherDisplay:10.37,2013-02-23 06:31:00,
2013-02-22 22:36:00,48.2,40.6,30.24,SW,228,10.4,11.5,75,0.00,CLR,,0.00,0.0,WeatherDisplay:10.37,2013-02-23 06:36:00,
2013-02-22 22:41:00,48.4,40.8,30.23,SSW,213,9.7,11.5,75,0.00,CLR,,0.00,0.0,WeatherDisplay:10.37,2013-02-23 06:41:00,
2013-02-22 22:46:00,48.6,41.0,30.24,SW,224,7.4,10.4,75,0.00,CLR,,0.00,0.0,WeatherDisplay:10.37,2013-02-23 06:46:00,
2013-02-22 22:51:00,48.8,41.2,30.24,SW,235,8.2,10.4,75,0.00,CLR,,0.00,0.0,WeatherDisplay:10.37,2013-02-23 06:51:00,
2013-02-22 22:56:00,49.0,41.1,30.24,WSW,241,5.2,8.1,74,0.00,CLR,,0.00,0.0,WeatherDisplay:10.37,2013-02-23 06:56:00,
2013-02-22 23:01:00,49.3,41.4,30.25,NW,305,4.0,8.1,74,0.00,OVC,,0.00,0.0,WeatherDisplay:10.37,2013-02-23 07:01:00,
2013-02-22 23:06:00,49.3,41.4,30.25,West,279,5.5,9.2,74,0.00,OVC,,0.00,0.0,WeatherDisplay:10.37,2013-02-23 07:06:00,
2013-02-22 23:11:00,49.4,41.5,30.25,SW,232,7.3,9.2,74,0.00,OVC,,0.00,0.0,WeatherDisplay:10.37,2013-02-23 07:11:00,
2013-02-22 23:16:00,49.5,41.2,30.25,WSW,249,5.4,6.9,73,0.00,OVC,,0.00,0.0,WeatherDisplay:10.37,2013-02-23 07:16:00,
2013-02-22 23:21:00,49.5,41.2,30.25,WNW,285,3.6,9.2,73,0.00,OVC,,0.00,0.0,WeatherDisplay:10.37,2013-02-23 07:21:00,
2013-02-22 23:26:00,49.5,41.2,30.25,West,270,3.5,7.0,73,0.00,OVC,,0.00,0.0,WeatherDisplay:10.37,2013-02-23 07:26:00,
2013-02-22 23:31:00,49.4,41.1,30.24,WSW,239,5.4,6.9,73,0.00,OVC,,0.00,0.0,WeatherDisplay:10.37,2013-02-23 07:31:00,
2013-02-22 23:36:00,49.3,41.0,30.24,SW,220,5.2,6.9,73,0.00,OVC,,0.00,0.0,WeatherDisplay:10.37,2013-02-23 07:36:00,
2013-02-22 23:41:00,49.2,40.9,30.24,WNW,299,10.6,12.7,73,0.00,OVC,,0.00,0.0,WeatherDisplay:10.37,2013-02-23 07:41:00,
2013-02-22 23:46:00,49.1,40.8,30.24,WNW,292,5.3,11.5,73,0.00,OVC,,0.00,0.0,WeatherDisplay:10.37,2013-02-23 07:46:00,
2013-02-22 23:51:00,49.0,40.7,30.24,West,274,5.6,8.1,73,0.00,OVC,,0.00,0.0,WeatherDisplay:10.37,2013-02-23 07:51:00,
2013-02-22 23:56:00,48.9,41.0,30.25,West,278,5.3,7.0,74,0.00,OVC,,0.00,0.0,WeatherDisplay:10.37,2013-02-23 07:56:00,